createdAt,value
2019-02-26T00:04:36.970Z,6.89
2019-02-26T00:07:16.284Z,6.93
2019-02-26T00:09:57.568Z,6.97
2019-02-26T00:12:35.578Z,7.02
2019-02-26T00:15:22.558Z,7.05
2019-02-26T00:17:53.112Z,7.08
2019-02-26T00:20:23.530Z,7.06
2019-02-26T00:22:55.332Z,7.11
2019-02-26T00:25:31.333Z,7.12
2019-02-26T00:28:01.630Z,7.15
2019-02-26T00:30:33.478Z,7.22
2019-02-26T00:33:09.671Z,7.27
2019-02-26T00:35:41.652Z,7.24
2019-02-26T00:38:32.932Z,7.21
2019-02-26T00:41:08.666Z,7.19
2019-02-26T00:43:38.922Z,7.19
2019-02-26T00:46:10.359Z,7.18
2019-02-26T00:48:52.225Z,7.18
2019-02-26T00:51:23.158Z,7.18
2019-02-26T00:57:06.471Z,7.06
2019-02-26T01:02:26.006Z,7.08
2019-02-26T01:04:56.404Z,7.06
2019-02-26T01:07:47.397Z,7.04
2019-02-26T01:10:44.121Z,7.05
2019-02-26T01:13:22.421Z,7.10
2019-02-26T01:15:58.402Z,7.06
2019-02-26T01:18:29.031Z,7.08
2019-02-26T01:21:22.154Z,7.11
2019-02-26T01:24:04.233Z,7.12
2019-02-26T01:26:42.660Z,7.16
2019-02-26T01:29:25.242Z,7.23
2019-02-26T01:32:02.211Z,7.27
2019-02-26T01:34:40.403Z,7.30
2019-02-26T01:37:27.865Z,7.32
2019-02-26T01:40:07.337Z,7.35
2019-02-26T01:43:01.126Z,7.34
2019-02-26T01:46:03.342Z,7.32
2019-02-26T01:48:34.491Z,7.28
2019-02-26T01:51:26.107Z,7.32
2019-02-26T01:54:01.834Z,7.39
2019-02-26T01:56:34.048Z,7.38
2019-02-26T01:59:23.194Z,7.36
2019-02-26T02:01:54.157Z,7.44
2019-02-26T02:04:55.068Z,7.53
2019-02-26T02:07:32.106Z,7.49
2019-02-26T02:10:03.236Z,7.59
2019-02-26T02:13:00.279Z,7.62
2019-02-26T02:15:37.904Z,7.66
2019-02-26T02:18:23.016Z,7.70
2019-02-26T02:20:58.840Z,7.70
2019-02-26T02:23:30.374Z,7.71
2019-02-26T02:26:20.217Z,7.75
2019-02-26T02:28:50.577Z,7.83
2019-02-26T02:31:22.004Z,7.86
2019-02-26T02:33:58.142Z,7.85
2019-02-26T02:36:28.413Z,7.77
2019-02-26T02:39:18.179Z,7.73
2019-02-26T02:41:55.085Z,7.72
2019-02-26T02:44:25.636Z,7.66
2019-02-26T02:47:27.876Z,7.64
2019-02-26T02:50:05.152Z,7.61
2019-02-26T02:52:40.076Z,7.60
2019-02-26T02:55:31.971Z,7.61
2019-02-26T02:58:02.237Z,7.65
2019-02-26T03:00:34.488Z,7.71
2019-02-26T03:03:09.967Z,7.75
2019-02-26T03:05:41.510Z,7.78
2019-02-26T03:08:31.387Z,7.77
2019-02-26T03:13:56.999Z,7.81
2019-02-26T03:16:28.872Z,7.81
2019-02-26T03:18:59.195Z,7.81
2019-02-26T03:21:30.644Z,7.88
2019-02-26T03:24:12.374Z,7.85
2019-02-26T03:26:42.620Z,7.92
2019-02-26T03:29:31.793Z,7.91
2019-02-26T03:35:02.158Z,7.85
2019-02-26T03:37:36.605Z,7.87
2019-02-26T03:40:12.588Z,7.89
2019-02-26T03:48:09.977Z,7.90
2019-02-26T03:50:45.888Z,7.84
2019-02-26T03:53:16.193Z,7.91
2019-02-26T03:56:25.793Z,7.94
2019-02-26T03:59:03.986Z,7.94
2019-02-26T04:01:49.662Z,7.90
2019-02-26T04:04:20.731Z,7.98
2019-02-26T04:06:58.485Z,8.01
2019-02-26T04:09:46.673Z,7.98
2019-02-26T04:12:21.724Z,8.05
2019-02-26T04:14:51.976Z,8.08
2019-02-26T04:17:25.465Z,8.09
2019-02-26T04:20:02.559Z,8.05
2019-02-26T04:22:42.354Z,8.08
2019-02-26T04:25:24.644Z,8.14
2019-02-26T04:28:15.303Z,8.12
2019-02-26T04:31:07.848Z,8.14
2019-02-26T04:34:08.772Z,8.17
2019-02-26T04:37:17.404Z,8.19
2019-02-26T04:40:13.995Z,8.13
2019-02-26T04:43:21.961Z,8.14
2019-02-26T04:46:31.584Z,8.20
2019-02-26T04:49:08.443Z,8.04
2019-02-26T04:51:41.532Z,7.97
2019-02-26T04:54:32.739Z,7.92
2019-02-26T04:57:08.022Z,7.77
2019-02-26T04:59:41.311Z,7.63
2019-02-26T05:02:35.499Z,7.50
2019-02-26T05:08:12.335Z,7.39
2019-02-26T05:11:02.865Z,7.35
2019-02-26T05:13:54.196Z,7.35
2019-02-26T05:20:09.347Z,7.29
2019-02-26T05:22:43.640Z,7.20
2019-02-26T05:28:14.071Z,7.26
2019-02-26T05:30:49.509Z,7.19
2019-02-26T05:33:27.682Z,7.22
2019-02-26T05:36:06.066Z,7.24
2019-02-26T05:38:42.015Z,7.20
2019-02-26T05:41:18.488Z,7.16
2019-02-26T05:43:52.147Z,7.20
2019-02-26T05:46:43.029Z,7.18
2019-02-26T05:49:37.082Z,7.07
2019-02-26T05:52:10.443Z,7.14
2019-02-26T05:54:41.306Z,7.14
2019-02-26T05:57:26.071Z,7.11
2019-02-26T06:03:20.644Z,7.09
2019-02-26T06:06:03.116Z,7.06
2019-02-26T06:08:36.320Z,7.05
2019-02-26T06:14:54.009Z,7.08
2019-02-26T06:17:30.886Z,7.13
2019-02-26T06:20:11.944Z,7.13
2019-02-26T06:25:35.929Z,7.15
2019-02-26T06:28:20.525Z,7.14
2019-02-26T06:33:53.554Z,7.30
2019-02-26T06:39:26.929Z,7.25
2019-02-26T06:42:17.488Z,7.26
2019-02-26T06:44:49.426Z,7.35
2019-02-26T06:47:39.237Z,7.36
2019-02-26T06:50:12.938Z,7.44
2019-02-26T06:53:04.430Z,7.40
2019-02-26T06:55:39.705Z,7.39
2019-02-26T06:58:29.247Z,7.48
2019-02-26T07:01:07.170Z,7.57
2019-02-26T07:03:43.345Z,7.54
2019-02-26T07:06:14.013Z,7.62
2019-02-26T07:08:46.676Z,7.61
2019-02-26T07:11:30.170Z,7.73
2019-02-26T07:14:07.897Z,7.84
2019-02-26T07:16:43.687Z,7.97
2019-02-26T07:19:20.179Z,8.02
2019-02-26T07:21:52.958Z,8.13
2019-02-26T07:24:44.534Z,8.15
2019-02-26T07:27:20.017Z,8.25
2019-02-26T07:32:40.769Z,8.38
2019-02-26T07:35:18.097Z,8.47
2019-02-26T07:37:48.671Z,8.58
2019-02-26T07:46:27.883Z,8.81
2019-02-26T07:49:04.224Z,8.90
2019-02-26T07:51:43.626Z,8.82
2019-02-26T07:54:14.189Z,8.96
2019-02-26T07:56:44.674Z,8.97
2019-02-26T07:59:15.211Z,9.09
2019-02-26T08:01:47.195Z,9.10
2019-02-26T08:04:28.764Z,9.11
2019-02-26T08:07:01.365Z,9.06
2019-02-26T08:09:36.607Z,9.09
2019-02-26T08:12:09.397Z,9.11
2019-02-26T08:14:58.387Z,9.20
2019-02-26T08:17:28.877Z,9.29
2019-02-26T08:22:46.774Z,9.27
2019-02-26T08:25:17.324Z,9.33
2019-02-26T08:27:49.916Z,9.33
2019-02-26T08:30:26.166Z,9.42
2019-02-26T08:33:05.249Z,9.49
2019-02-26T08:35:41.429Z,9.40
2019-02-26T08:40:54.283Z,9.40
2019-02-26T08:43:24.855Z,9.46
2019-02-26T08:45:55.416Z,9.44
2019-02-26T08:48:26.985Z,9.48
2019-02-26T08:51:06.174Z,9.59
2019-02-26T08:53:51.899Z,9.56
2019-02-26T08:59:11.740Z,9.72
2019-02-26T09:01:42.455Z,9.73
2019-02-26T09:04:14.503Z,9.79
2019-02-26T09:06:52.431Z,9.80
2019-02-26T09:09:30.175Z,9.84
2019-02-26T09:12:06.829Z,9.91
2019-02-26T09:14:40.275Z,10.04
2019-02-26T09:20:14.683Z,10.00
2019-02-26T09:25:40.161Z,10.01
2019-02-26T09:28:10.940Z,10.09
2019-02-26T09:30:41.520Z,10.09
2019-02-26T09:33:12.062Z,10.09
2019-02-26T09:35:45.249Z,10.13
2019-02-26T09:38:22.953Z,10.15
2019-02-26T09:43:59.356Z,10.12
2019-02-26T09:46:37.198Z,10.10
2019-02-26T09:49:14.354Z,10.10
2019-02-26T09:51:44.911Z,10.18
2019-02-26T09:54:17.619Z,10.24
2019-02-26T09:56:53.303Z,10.26
2019-02-26T09:59:23.896Z,10.28
2019-02-26T10:01:56.426Z,10.25
2019-02-26T10:04:44.916Z,10.30
2019-02-26T10:07:20.568Z,10.38
2019-02-26T10:09:51.155Z,10.43
2019-02-26T10:12:21.929Z,10.51
2019-02-26T10:14:54.564Z,10.39
2019-02-26T10:17:45.178Z,10.40
2019-02-26T10:20:23.248Z,10.52
2019-02-26T10:26:05.764Z,10.49
2019-02-26T10:28:42.672Z,10.61
2019-02-26T10:31:24.137Z,10.64
2019-02-26T10:37:15.896Z,10.70
2019-02-26T10:39:47.955Z,10.67
2019-02-26T10:42:24.125Z,10.72
2019-02-26T10:44:54.740Z,10.69
2019-02-26T10:47:27.338Z,10.73
2019-02-26T10:50:02.917Z,10.73
2019-02-26T10:52:33.708Z,10.79
2019-02-26T10:55:06.477Z,10.81
2019-02-26T11:03:21.286Z,10.85
2019-02-26T11:05:52.393Z,10.85
2019-02-26T11:08:30.518Z,10.92
2019-02-26T11:11:09.462Z,10.80
2019-02-26T11:13:47.019Z,10.82
2019-02-26T11:16:25.118Z,10.92
2019-02-26T11:19:19.687Z,10.99
2019-02-26T11:21:55.550Z,11.02
2019-02-26T11:27:31.864Z,11.03
2019-02-26T11:30:05.011Z,11.05
2019-02-26T11:33:06.066Z,10.92
2019-02-26T11:38:30.827Z,11.00
2019-02-26T11:41:20.846Z,10.94
2019-02-26T11:43:51.434Z,10.60
2019-02-26T11:46:23.143Z,10.72
2019-02-26T11:52:04.717Z,10.62
2019-02-26T11:54:37.264Z,10.64
2019-02-26T11:57:15.179Z,10.89
2019-02-26T12:02:46.156Z,11.15
2019-02-26T12:05:16.834Z,11.26
2019-02-26T12:07:48.727Z,11.36
2019-02-26T12:10:40.422Z,11.29
2019-02-26T12:13:17.153Z,11.22
2019-02-26T12:18:44.956Z,11.42
2019-02-26T12:21:21.288Z,11.59
2019-02-26T12:23:51.798Z,11.61
2019-02-26T12:26:25.580Z,11.84
2019-02-26T12:31:42.994Z,12.27
2019-02-26T12:34:14.588Z,12.49
2019-02-26T12:37:06.613Z,12.62
2019-02-26T12:42:29.570Z,12.64
2019-02-26T12:45:01.826Z,12.77
2019-02-26T12:47:54.481Z,12.97
2019-02-26T12:50:32.988Z,12.95
2019-02-26T12:53:15.846Z,13.00
2019-02-26T12:55:54.042Z,12.88
2019-02-26T12:58:29.501Z,13.05
2019-02-26T13:01:00.275Z,13.10
2019-02-26T13:03:30.954Z,13.32
2019-02-26T13:06:37.507Z,13.33
2019-02-26T13:09:32.852Z,13.43
2019-02-26T13:12:25.066Z,13.55
2019-02-26T13:15:04.899Z,13.58
2019-02-26T13:17:54.309Z,13.58
2019-02-26T13:20:26.972Z,13.67
2019-02-26T13:23:16.436Z,13.69
2019-02-26T13:25:48.965Z,13.63
2019-02-26T13:28:19.483Z,13.63
2019-02-26T13:30:49.930Z,13.69
2019-02-26T13:33:26.283Z,13.63
2019-02-26T13:36:11.986Z,13.58
2019-02-26T13:38:45.900Z,13.63
2019-02-26T13:41:38.896Z,13.65
2019-02-26T13:44:11.616Z,13.62
2019-02-26T13:46:42.241Z,13.57
2019-02-26T13:49:12.961Z,13.41
2019-02-26T13:51:56.109Z,13.23
2019-02-26T13:54:27.346Z,13.15
2019-02-26T13:56:57.909Z,13.24
2019-02-26T13:59:53.007Z,13.21
2019-02-26T14:05:15.202Z,13.27
2019-02-26T14:08:06.470Z,13.19
2019-02-26T14:10:37.104Z,13.19
2019-02-26T14:13:07.812Z,13.13
2019-02-26T14:15:45.399Z,13.01
2019-02-26T14:18:21.478Z,12.96
2019-02-26T14:26:34.369Z,12.91
2019-02-26T14:29:05.323Z,12.90
2019-02-26T14:31:35.866Z,12.97
2019-02-26T14:34:06.155Z,13.00
2019-02-26T14:36:36.422Z,12.93
2019-02-26T14:39:27.137Z,12.91
2019-02-26T14:41:57.406Z,12.91
2019-02-26T14:44:28.016Z,12.80
2019-02-26T14:49:52.927Z,12.69
2019-02-26T14:52:23.156Z,12.59
2019-02-26T14:54:54.007Z,12.56
2019-02-26T14:57:24.303Z,12.46
2019-02-26T14:59:55.282Z,12.42
2019-02-26T15:02:47.879Z,12.35
2019-02-26T15:08:30.606Z,12.25
2019-02-26T15:11:25.974Z,12.23
2019-02-26T15:13:56.298Z,12.22
2019-02-26T15:16:26.609Z,12.24
2019-02-26T15:18:56.968Z,12.21
2019-02-26T15:21:47.674Z,12.17
2019-02-26T15:24:17.983Z,12.10
2019-02-26T15:27:35.740Z,12.02
2019-02-26T15:30:24.545Z,11.91
2019-02-26T15:32:56.192Z,11.83
2019-02-26T15:36:06.379Z,11.72
2019-02-26T15:38:36.650Z,11.63
2019-02-26T15:41:26.852Z,11.55
2019-02-26T15:46:48.285Z,11.25
2019-02-26T15:49:20.314Z,11.14
2019-02-26T15:52:12.940Z,11.03
2019-02-26T15:54:45.153Z,10.93
2019-02-26T15:57:17.802Z,10.79
2019-02-26T16:02:40.933Z,10.59
2019-02-26T16:11:10.290Z,10.15
2019-02-26T16:13:40.597Z,10.04
2019-02-26T16:16:10.839Z,9.96
2019-02-26T16:19:01.520Z,9.86
2019-02-26T16:24:23.234Z,9.66
2019-02-26T16:29:45.353Z,9.55
2019-02-26T16:38:17.077Z,9.10
2019-02-26T16:43:39.136Z,8.87
2019-02-26T16:46:11.353Z,8.81
2019-02-26T16:48:41.570Z,8.74
2019-02-26T16:51:11.763Z,8.64
2019-02-26T16:53:42.350Z,8.56
2019-02-26T16:56:36.695Z,8.48
2019-02-26T16:59:07.840Z,8.43
2019-02-26T17:01:44.383Z,8.26
2019-02-26T17:04:38.550Z,8.07
2019-02-26T17:07:18.376Z,7.91
2019-02-26T17:10:09.697Z,7.83
2019-02-26T17:12:40.027Z,7.73
2019-02-26T17:15:32.476Z,7.63
2019-02-26T17:18:29.065Z,7.55
2019-02-26T17:20:59.434Z,7.43
2019-02-26T17:23:29.768Z,7.34
2019-02-26T17:26:00.638Z,7.21
2019-02-26T17:28:37.357Z,7.11
2019-02-26T17:31:07.586Z,7.05
2019-02-26T17:33:38.081Z,6.99
2019-02-26T17:36:08.514Z,6.92
2019-02-26T17:41:30.714Z,6.82
2019-02-26T17:44:02.200Z,6.78
2019-02-26T17:46:38.321Z,6.72
2019-02-26T17:49:08.608Z,6.61
2019-02-26T17:51:38.824Z,6.45
2019-02-26T17:54:09.108Z,6.41
2019-02-26T17:56:39.381Z,6.30
2019-02-26T17:59:09.614Z,6.28
2019-02-26T18:01:39.893Z,6.28
2019-02-26T18:04:10.140Z,6.29
2019-02-26T18:06:40.378Z,6.27
2019-02-26T18:09:10.648Z,6.23
2019-02-26T18:11:42.647Z,6.16
2019-02-26T18:14:12.862Z,6.13
2019-02-26T18:22:27.132Z,6.00
2019-02-26T18:24:57.389Z,5.97
2019-02-26T18:27:30.363Z,5.96
2019-02-26T18:30:54.287Z,5.93
2019-02-26T18:33:24.467Z,5.91
2019-02-26T18:35:54.589Z,5.87
2019-02-26T18:38:43.948Z,5.77
2019-02-26T18:41:14.720Z,5.66
2019-02-26T18:47:07.093Z,5.67
2019-02-26T18:56:17.553Z,5.61
2019-02-26T18:58:49.072Z,5.60
2019-02-26T19:01:47.817Z,5.59
2019-02-26T19:04:18.842Z,5.49
2019-02-26T19:10:01.289Z,5.42
2019-02-26T19:12:36.641Z,5.40
2019-02-26T19:15:08.618Z,5.38
2019-02-26T19:17:41.814Z,5.33
2019-02-26T19:20:14.925Z,5.28
2019-02-26T19:22:52.102Z,5.24
2019-02-26T19:28:19.130Z,5.15
2019-02-26T19:30:49.883Z,5.11
2019-02-26T19:36:15.338Z,5.02
2019-02-26T19:39:04.587Z,5.05
2019-02-26T19:41:36.572Z,4.99
2019-02-26T19:44:06.937Z,5.04
2019-02-26T19:46:49.568Z,5.05
2019-02-26T19:49:20.723Z,5.06
2019-02-26T19:51:51.937Z,5.08
2019-02-26T19:54:41.565Z,5.04
2019-02-26T19:57:16.397Z,5.03
2019-02-26T20:00:02.587Z,4.94
2019-02-26T20:05:30.411Z,4.83
2019-02-26T20:11:41.000Z,4.93
2019-02-26T20:14:14.664Z,4.91
2019-02-26T20:19:32.978Z,4.79
2019-02-26T20:22:03.903Z,4.75
2019-02-26T20:24:34.389Z,4.71
2019-02-26T20:27:05.214Z,4.62
2019-02-26T20:29:35.866Z,4.50
2019-02-26T20:38:40.275Z,4.50
2019-02-26T20:41:24.461Z,4.50
2019-02-26T20:44:14.242Z,4.50
2019-02-26T20:47:09.842Z,4.49
2019-02-26T20:49:40.954Z,4.46
2019-02-26T20:52:49.486Z,4.36
2019-02-26T20:55:41.167Z,4.28
2019-02-26T21:01:33.885Z,4.15
2019-02-26T21:04:24.335Z,4.10
2019-02-26T21:07:14.217Z,4.07
2019-02-26T21:09:45.250Z,4.08
2019-02-26T21:12:16.109Z,4.10
2019-02-26T21:17:52.893Z,4.11
2019-02-26T21:20:23.714Z,4.07
2019-02-26T21:22:55.021Z,4.05
2019-02-26T21:25:47.513Z,4.01
2019-02-26T21:28:24.556Z,3.99
2019-02-26T21:30:55.118Z,3.97
2019-02-26T21:33:25.697Z,3.98
2019-02-26T21:35:56.314Z,3.98
2019-02-26T21:38:27.078Z,3.97
2019-02-26T21:40:57.978Z,3.94
2019-02-26T21:43:28.544Z,3.88
2019-02-26T21:45:59.052Z,3.87
2019-02-26T21:48:29.684Z,3.86
2019-02-26T21:51:00.152Z,3.85
2019-02-26T21:53:30.837Z,3.78
2019-02-26T21:56:01.453Z,3.77
2019-02-26T21:58:31.975Z,3.78
2019-02-26T22:01:02.543Z,3.82
2019-02-26T22:03:34.882Z,3.85
2019-02-26T22:06:05.763Z,3.94
2019-02-26T22:08:57.117Z,3.98
2019-02-26T22:11:34.545Z,3.89
2019-02-26T22:17:06.933Z,3.72
2019-02-26T22:22:26.155Z,3.71
2019-02-26T22:25:15.951Z,3.72
2019-02-26T22:27:49.664Z,3.64
2019-02-26T22:30:22.876Z,3.64
2019-02-26T22:32:59.770Z,3.70
2019-02-26T22:35:30.343Z,3.76
2019-02-26T22:38:00.961Z,3.76
2019-02-26T22:40:31.703Z,3.77
2019-02-26T22:43:02.314Z,3.79
2019-02-26T22:45:32.969Z,3.82
2019-02-26T22:48:03.631Z,3.82
2019-02-26T22:53:59.669Z,3.58
2019-02-26T22:56:30.328Z,3.48
2019-02-26T22:59:01.041Z,3.36
2019-02-26T23:01:40.517Z,3.40
2019-02-26T23:04:11.454Z,3.45
2019-02-26T23:06:42.040Z,3.49
2019-02-26T23:11:59.128Z,3.53
2019-02-26T23:17:14.978Z,3.33
2019-02-26T23:19:45.737Z,3.33
2019-02-26T23:22:55.448Z,3.25
2019-02-26T23:25:26.257Z,3.18
2019-02-26T23:27:57.037Z,3.14
2019-02-26T23:30:27.745Z,3.11
2019-02-26T23:35:43.347Z,3.09
2019-02-26T23:38:13.981Z,3.15
2019-02-26T23:40:44.511Z,3.13
2019-02-26T23:43:15.142Z,3.14
2019-02-26T23:45:45.722Z,3.06
2019-02-26T23:48:16.372Z,3.11
2019-02-26T23:50:47.866Z,2.94
2019-02-26T23:53:38.455Z,2.96
2019-02-26T23:56:09.107Z,2.95
2019-02-26T23:58:39.657Z,3.08
